sensor_id;sensor_type;location;lat;lon;timestamp;P1;durP1;ratioP1;P2;durP2;ratioP2
45344;SDS011;31078;48.304;11.896;2023-07-29T00:01:53;5.95;;;3.00;;
45344;SDS011;31078;48.304;11.896;2023-07-29T00:04:19;5.47;;;3.45;;
45344;SDS011;31078;48.304;11.896;2023-07-29T00:06:46;4.75;;;3.50;;
45344;SDS011;31078;48.304;11.896;2023-07-29T00:09:12;5.03;;;3.08;;
45344;SDS011;31078;48.304;11.896;2023-07-29T00:11:39;8.00;;;3.20;;
45344;SDS011;31078;48.304;11.896;2023-07-29T00:14:09;4.65;;;3.25;;
45344;SDS011;31078;48.304;11.896;2023-07-29T00:16:35;5.45;;;3.03;;
45344;SDS011;31078;48.304;11.896;2023-07-29T00:19:02;7.10;;;3.45;;
45344;SDS011;31078;48.304;11.896;2023-07-29T00:21:29;6.45;;;3.28;;
45344;SDS011;31078;48.304;11.896;2023-07-29T00:23:58;6.85;;;3.22;;
45344;SDS011;31078;48.304;11.896;2023-07-29T00:26:26;5.80;;;3.38;;
45344;SDS011;31078;48.304;11.896;2023-07-29T00:28:54;5.40;;;3.10;;
45344;SDS011;31078;48.304;11.896;2023-07-29T00:31:24;5.20;;;3.38;;
45344;SDS011;31078;48.304;11.896;2023-07-29T00:33:50;4.47;;;3.00;;
45344;SDS011;31078;48.304;11.896;2023-07-29T00:36:17;5.53;;;3.40;;
45344;SDS011;31078;48.304;11.896;2023-07-29T00:38:44;6.15;;;4.00;;
45344;SDS011;31078;48.304;11.896;2023-07-29T00:41:11;4.72;;;3.15;;
45344;SDS011;31078;48.304;11.896;2023-07-29T00:43:38;5.68;;;3.38;;
45344;SDS011;31078;48.304;11.896;2023-07-29T00:46:05;6.30;;;3.20;;
45344;SDS011;31078;48.304;11.896;2023-07-29T00:48:34;4.72;;;3.08;;
45344;SDS011;31078;48.304;11.896;2023-07-29T00:51:01;4.90;;;3.20;;
45344;SDS011;31078;48.304;11.896;2023-07-29T00:53:27;5.07;;;3.25;;
45344;SDS011;31078;48.304;11.896;2023-07-29T00:55:56;5.30;;;3.30;;
45344;SDS011;31078;48.304;11.896;2023-07-29T00:58:23;7.18;;;2.97;;
45344;SDS011;31078;48.304;11.896;2023-07-29T01:00:49;5.45;;;3.30;;
45344;SDS011;31078;48.304;11.896;2023-07-29T01:03:16;5.30;;;3.38;;
45344;SDS011;31078;48.304;11.896;2023-07-29T01:05:48;7.95;;;3.15;;
45344;SDS011;31078;48.304;11.896;2023-07-29T01:08:26;4.40;;;3.10;;
45344;SDS011;31078;48.304;11.896;2023-07-29T01:11:01;6.53;;;3.15;;
45344;SDS011;31078;48.304;11.896;2023-07-29T01:13:37;4.47;;;2.90;;
45344;SDS011;31078;48.304;11.896;2023-07-29T01:16:12;5.88;;;3.00;;
45344;SDS011;31078;48.304;11.896;2023-07-29T01:18:42;4.35;;;2.80;;
45344;SDS011;31078;48.304;11.896;2023-07-29T01:21:14;5.68;;;3.40;;
45344;SDS011;31078;48.304;11.896;2023-07-29T01:23:44;4.75;;;2.63;;
45344;SDS011;31078;48.304;11.896;2023-07-29T01:26:10;4.78;;;3.22;;
45344;SDS011;31078;48.304;11.896;2023-07-29T01:28:37;4.40;;;3.00;;
45344;SDS011;31078;48.304;11.896;2023-07-29T01:31:07;5.72;;;3.20;;
45344;SDS011;31078;48.304;11.896;2023-07-29T01:33:39;4.55;;;2.72;;
45344;SDS011;31078;48.304;11.896;2023-07-29T01:36:11;5.72;;;3.60;;
45344;SDS011;31078;48.304;11.896;2023-07-29T01:38:41;5.13;;;3.40;;
45344;SDS011;31078;48.304;11.896;2023-07-29T01:41:11;7.50;;;3.30;;
45344;SDS011;31078;48.304;11.896;2023-07-29T01:43:39;4.68;;;3.00;;
45344;SDS011;31078;48.304;11.896;2023-07-29T01:46:09;7.20;;;3.10;;
45344;SDS011;31078;48.304;11.896;2023-07-29T01:48:35;5.50;;;3.42;;
45344;SDS011;31078;48.304;11.896;2023-07-29T01:51:02;7.05;;;3.20;;
45344;SDS011;31078;48.304;11.896;2023-07-29T01:53:29;5.05;;;2.85;;
45344;SDS011;31078;48.304;11.896;2023-07-29T01:55:55;7.07;;;3.05;;
45344;SDS011;31078;48.304;11.896;2023-07-29T01:58:24;4.47;;;3.20;;
45344;SDS011;31078;48.304;11.896;2023-07-29T02:00:51;4.50;;;2.97;;
45344;SDS011;31078;48.304;11.896;2023-07-29T02:03:17;5.45;;;3.03;;
45344;SDS011;31078;48.304;11.896;2023-07-29T02:05:44;5.30;;;3.17;;
45344;SDS011;31078;48.304;11.896;2023-07-29T02:08:12;4.35;;;2.92;;
45344;SDS011;31078;48.304;11.896;2023-07-29T02:10:39;7.25;;;3.10;;
45344;SDS011;31078;48.304;11.896;2023-07-29T02:13:05;5.93;;;3.00;;
45344;SDS011;31078;48.304;11.896;2023-07-29T02:15:36;4.22;;;3.05;;
45344;SDS011;31078;48.304;11.896;2023-07-29T02:18:02;5.82;;;3.05;;
45344;SDS011;31078;48.304;11.896;2023-07-29T02:20:29;6.63;;;3.00;;
45344;SDS011;31078;48.304;11.896;2023-07-29T02:22:56;3.95;;;2.65;;
45344;SDS011;31078;48.304;11.896;2023-07-29T02:25:23;5.85;;;3.10;;
45344;SDS011;31078;48.304;11.896;2023-07-29T02:27:50;5.57;;;2.92;;
45344;SDS011;31078;48.304;11.896;2023-07-29T02:30:17;6.93;;;2.90;;
45344;SDS011;31078;48.304;11.896;2023-07-29T02:32:45;4.10;;;2.65;;
45344;SDS011;31078;48.304;11.896;2023-07-29T02:35:11;5.70;;;2.70;;
45344;SDS011;31078;48.304;11.896;2023-07-29T02:37:38;5.57;;;2.90;;
45344;SDS011;31078;48.304;11.896;2023-07-29T02:40:05;4.90;;;2.35;;
45344;SDS011;31078;48.304;11.896;2023-07-29T02:42:32;4.32;;;2.50;;
45344;SDS011;31078;48.304;11.896;2023-07-29T02:44:58;8.68;;;3.13;;
45344;SDS011;31078;48.304;11.896;2023-07-29T02:47:25;4.05;;;2.85;;
45344;SDS011;31078;48.304;11.896;2023-07-29T02:49:55;4.32;;;2.60;;
45344;SDS011;31078;48.304;11.896;2023-07-29T02:52:22;5.15;;;2.40;;
45344;SDS011;31078;48.304;11.896;2023-07-29T02:54:49;8.07;;;2.95;;
45344;SDS011;31078;48.304;11.896;2023-07-29T02:57:15;5.43;;;2.60;;
45344;SDS011;31078;48.304;11.896;2023-07-29T02:59:42;4.75;;;2.88;;
45344;SDS011;31078;48.304;11.896;2023-07-29T03:02:09;5.72;;;2.95;;
45344;SDS011;31078;48.304;11.896;2023-07-29T03:04:35;6.70;;;2.30;;
45344;SDS011;31078;48.304;11.896;2023-07-29T03:07:04;3.58;;;2.65;;
45344;SDS011;31078;48.304;11.896;2023-07-29T03:09:30;5.80;;;2.80;;
45344;SDS011;31078;48.304;11.896;2023-07-29T03:11:58;5.72;;;3.00;;
45344;SDS011;31078;48.304;11.896;2023-07-29T03:14:24;6.10;;;3.08;;
45344;SDS011;31078;48.304;11.896;2023-07-29T03:16:51;5.38;;;3.08;;
45344;SDS011;31078;48.304;11.896;2023-07-29T03:19:19;5.70;;;2.95;;
45344;SDS011;31078;48.304;11.896;2023-07-29T03:21:46;8.30;;;3.00;;
45344;SDS011;31078;48.304;11.896;2023-07-29T03:24:16;7.38;;;3.03;;
45344;SDS011;31078;48.304;11.896;2023-07-29T03:26:42;4.22;;;2.78;;
45344;SDS011;31078;48.304;11.896;2023-07-29T03:29:09;4.35;;;2.40;;
45344;SDS011;31078;48.304;11.896;2023-07-29T03:31:36;3.83;;;2.28;;
45344;SDS011;31078;48.304;11.896;2023-07-29T03:34:02;7.47;;;2.80;;
45344;SDS011;31078;48.304;11.896;2023-07-29T03:36:29;4.20;;;2.78;;
45344;SDS011;31078;48.304;11.896;2023-07-29T03:38:55;5.03;;;2.53;;
45344;SDS011;31078;48.304;11.896;2023-07-29T03:41:24;5.53;;;2.50;;
45344;SDS011;31078;48.304;11.896;2023-07-29T03:43:51;5.05;;;2.40;;
45344;SDS011;31078;48.304;11.896;2023-07-29T03:46:17;6.10;;;2.95;;
45344;SDS011;31078;48.304;11.896;2023-07-29T03:48:46;4.10;;;2.58;;
45344;SDS011;31078;48.304;11.896;2023-07-29T03:51:13;4.53;;;2.60;;
45344;SDS011;31078;48.304;11.896;2023-07-29T03:53:39;6.57;;;3.08;;
45344;SDS011;31078;48.304;11.896;2023-07-29T03:56:06;6.20;;;2.65;;
45344;SDS011;31078;48.304;11.896;2023-07-29T03:58:34;7.03;;;2.95;;
45344;SDS011;31078;48.304;11.896;2023-07-29T04:01:01;7.57;;;3.10;;
45344;SDS011;31078;48.304;11.896;2023-07-29T04:03:30;4.00;;;2.85;;
45344;SDS011;31078;48.304;11.896;2023-07-29T04:05:57;7.13;;;2.42;;
45344;SDS011;31078;48.304;11.896;2023-07-29T04:08:23;5.35;;;2.45;;
45344;SDS011;31078;48.304;11.896;2023-07-29T04:10:50;3.92;;;2.60;;
45344;SDS011;31078;48.304;11.896;2023-07-29T04:13:16;4.05;;;2.80;;
45344;SDS011;31078;48.304;11.896;2023-07-29T04:15:44;5.10;;;2.60;;
45344;SDS011;31078;48.304;11.896;2023-07-29T04:18:11;5.90;;;2.65;;
45344;SDS011;31078;48.304;11.896;2023-07-29T04:20:37;7.30;;;2.67;;
45344;SDS011;31078;48.304;11.896;2023-07-29T04:23:04;5.25;;;2.40;;
45344;SDS011;31078;48.304;11.896;2023-07-29T04:25:30;5.28;;;2.60;;
45344;SDS011;31078;48.304;11.896;2023-07-29T04:27:57;5.72;;;2.75;;
45344;SDS011;31078;48.304;11.896;2023-07-29T04:30:23;3.75;;;2.03;;
45344;SDS011;31078;48.304;11.896;2023-07-29T04:32:51;3.97;;;2.30;;
45344;SDS011;31078;48.304;11.896;2023-07-29T04:35:18;4.78;;;2.40;;
45344;SDS011;31078;48.304;11.896;2023-07-29T04:37:46;4.57;;;2.22;;
45344;SDS011;31078;48.304;11.896;2023-07-29T04:40:13;3.25;;;2.33;;
45344;SDS011;31078;48.304;11.896;2023-07-29T04:42:42;3.92;;;2.00;;
45344;SDS011;31078;48.304;11.896;2023-07-29T04:45:09;4.55;;;2.10;;
45344;SDS011;31078;48.304;11.896;2023-07-29T04:47:35;4.20;;;2.58;;
45344;SDS011;31078;48.304;11.896;2023-07-29T04:50:04;3.42;;;2.10;;
45344;SDS011;31078;48.304;11.896;2023-07-29T04:52:31;3.10;;;2.10;;
45344;SDS011;31078;48.304;11.896;2023-07-29T04:54:58;4.93;;;2.15;;
45344;SDS011;31078;48.304;11.896;2023-07-29T04:57:24;7.03;;;2.35;;
45344;SDS011;31078;48.304;11.896;2023-07-29T04:59:51;4.47;;;2.03;;
45344;SDS011;31078;48.304;11.896;2023-07-29T05:02:17;4.85;;;2.30;;
45344;SDS011;31078;48.304;11.896;2023-07-29T05:04:44;3.25;;;2.05;;
45344;SDS011;31078;48.304;11.896;2023-07-29T05:07:14;6.45;;;2.20;;
45344;SDS011;31078;48.304;11.896;2023-07-29T05:09:40;3.38;;;2.05;;
45344;SDS011;31078;48.304;11.896;2023-07-29T05:12:07;2.80;;;1.80;;
45344;SDS011;31078;48.304;11.896;2023-07-29T05:14:34;6.88;;;2.00;;
45344;SDS011;31078;48.304;11.896;2023-07-29T05:17:01;5.30;;;2.10;;
45344;SDS011;31078;48.304;11.896;2023-07-29T05:19:27;3.33;;;1.92;;
45344;SDS011;31078;48.304;11.896;2023-07-29T05:21:54;4.88;;;2.08;;
45344;SDS011;31078;48.304;11.896;2023-07-29T05:24:23;3.15;;;1.85;;
45344;SDS011;31078;48.304;11.896;2023-07-29T05:26:49;5.20;;;2.22;;
45344;SDS011;31078;48.304;11.896;2023-07-29T05:29:16;4.30;;;1.90;;
45344;SDS011;31078;48.304;11.896;2023-07-29T05:31:42;5.05;;;2.00;;
45344;SDS011;31078;48.304;11.896;2023-07-29T05:34:09;4.68;;;2.10;;
45344;SDS011;31078;48.304;11.896;2023-07-29T05:36:35;4.60;;;2.00;;
45344;SDS011;31078;48.304;11.896;2023-07-29T05:39:02;2.90;;;1.75;;
45344;SDS011;31078;48.304;11.896;2023-07-29T05:41:30;5.47;;;2.30;;
45344;SDS011;31078;48.304;11.896;2023-07-29T05:43:56;4.55;;;1.80;;
45344;SDS011;31078;48.304;11.896;2023-07-29T05:46:23;3.45;;;1.92;;
45344;SDS011;31078;48.304;11.896;2023-07-29T05:48:49;2.75;;;1.70;;
45344;SDS011;31078;48.304;11.896;2023-07-29T05:51:16;3.42;;;1.90;;
45344;SDS011;31078;48.304;11.896;2023-07-29T05:53:42;3.47;;;2.10;;
45344;SDS011;31078;48.304;11.896;2023-07-29T05:56:09;3.88;;;1.70;;
45344;SDS011;31078;48.304;11.896;2023-07-29T05:58:37;3.20;;;1.90;;
45344;SDS011;31078;48.304;11.896;2023-07-29T06:01:03;2.85;;;1.70;;
45344;SDS011;31078;48.304;11.896;2023-07-29T06:03:30;5.35;;;2.13;;
45344;SDS011;31078;48.304;11.896;2023-07-29T06:05:56;2.65;;;1.60;;
45344;SDS011;31078;48.304;11.896;2023-07-29T06:08:23;3.85;;;1.83;;
45344;SDS011;31078;48.304;11.896;2023-07-29T06:10:53;3.10;;;1.90;;
45344;SDS011;31078;48.304;11.896;2023-07-29T06:13:19;2.80;;;1.80;;
45344;SDS011;31078;48.304;11.896;2023-07-29T06:15:47;1.90;;;1.42;;
45344;SDS011;31078;48.304;11.896;2023-07-29T06:18:14;3.42;;;1.70;;
45344;SDS011;31078;48.304;11.896;2023-07-29T06:20:41;2.50;;;1.85;;
45344;SDS011;31078;48.304;11.896;2023-07-29T06:23:11;3.58;;;1.88;;
45344;SDS011;31078;48.304;11.896;2023-07-29T06:25:37;3.67;;;1.90;;
45344;SDS011;31078;48.304;11.896;2023-07-29T06:28:04;3.00;;;1.92;;
45344;SDS011;31078;48.304;11.896;2023-07-29T06:30:31;2.90;;;1.80;;
45344;SDS011;31078;48.304;11.896;2023-07-29T06:32:59;3.47;;;1.90;;
45344;SDS011;31078;48.304;11.896;2023-07-29T06:35:28;3.33;;;1.88;;
45344;SDS011;31078;48.304;11.896;2023-07-29T06:37:54;3.45;;;1.73;;
45344;SDS011;31078;48.304;11.896;2023-07-29T06:40:21;2.63;;;1.75;;
45344;SDS011;31078;48.304;11.896;2023-07-29T06:42:47;3.33;;;1.70;;
45344;SDS011;31078;48.304;11.896;2023-07-29T06:45:14;2.70;;;1.63;;
45344;SDS011;31078;48.304;11.896;2023-07-29T06:47:41;3.33;;;1.75;;
45344;SDS011;31078;48.304;11.896;2023-07-29T06:50:09;2.78;;;1.73;;
45344;SDS011;31078;48.304;11.896;2023-07-29T06:52:36;2.17;;;1.55;;
45344;SDS011;31078;48.304;11.896;2023-07-29T06:55:03;2.72;;;1.50;;
45344;SDS011;31078;48.304;11.896;2023-07-29T06:57:30;3.17;;;1.80;;
45344;SDS011;31078;48.304;11.896;2023-07-29T06:59:57;3.45;;;1.83;;
45344;SDS011;31078;48.304;11.896;2023-07-29T07:02:24;3.75;;;1.35;;
45344;SDS011;31078;48.304;11.896;2023-07-29T07:04:50;2.30;;;1.48;;
45344;SDS011;31078;48.304;11.896;2023-07-29T07:07:18;4.28;;;1.50;;
45344;SDS011;31078;48.304;11.896;2023-07-29T07:09:45;2.17;;;1.42;;
45344;SDS011;31078;48.304;11.896;2023-07-29T07:12:11;4.00;;;1.50;;
45344;SDS011;31078;48.304;11.896;2023-07-29T07:14:38;2.97;;;1.70;;
45344;SDS011;31078;48.304;11.896;2023-07-29T07:17:04;2.33;;;1.67;;
45344;SDS011;31078;48.304;11.896;2023-07-29T07:19:31;3.42;;;1.55;;
45344;SDS011;31078;48.304;11.896;2023-07-29T07:21:57;2.35;;;1.65;;
45344;SDS011;31078;48.304;11.896;2023-07-29T07:24:25;5.25;;;2.00;;
45344;SDS011;31078;48.304;11.896;2023-07-29T07:26:52;5.07;;;2.70;;
45344;SDS011;31078;48.304;11.896;2023-07-29T07:29:21;15.95;;;3.90;;
45344;SDS011;31078;48.304;11.896;2023-07-29T07:31:49;10.63;;;3.47;;
45344;SDS011;31078;48.304;11.896;2023-07-29T07:34:18;12.18;;;4.32;;
45344;SDS011;31078;48.304;11.896;2023-07-29T07:36:45;20.23;;;4.18;;
45344;SDS011;31078;48.304;11.896;2023-07-29T07:39:13;11.85;;;4.18;;
45344;SDS011;31078;48.304;11.896;2023-07-29T07:41:41;13.32;;;4.50;;
45344;SDS011;31078;48.304;11.896;2023-07-29T07:44:08;9.85;;;4.10;;
45344;SDS011;31078;48.304;11.896;2023-07-29T07:46:36;8.98;;;4.40;;
45344;SDS011;31078;48.304;11.896;2023-07-29T07:49:02;10.02;;;4.82;;
45344;SDS011;31078;48.304;11.896;2023-07-29T07:51:29;10.43;;;5.80;;
45344;SDS011;31078;48.304;11.896;2023-07-29T07:53:55;7.80;;;5.28;;
45344;SDS011;31078;48.304;11.896;2023-07-29T07:56:22;11.60;;;6.30;;
45344;SDS011;31078;48.304;11.896;2023-07-29T07:58:50;10.88;;;6.47;;
45344;SDS011;31078;48.304;11.896;2023-07-29T08:01:16;10.80;;;6.50;;
45344;SDS011;31078;48.304;11.896;2023-07-29T08:03:44;12.43;;;6.38;;
45344;SDS011;31078;48.304;11.896;2023-07-29T08:06:11;14.10;;;7.07;;
45344;SDS011;31078;48.304;11.896;2023-07-29T08:08:37;10.35;;;6.70;;
45344;SDS011;31078;48.304;11.896;2023-07-29T08:11:04;15.00;;;6.72;;
45344;SDS011;31078;48.304;11.896;2023-07-29T08:13:30;12.55;;;7.53;;
45344;SDS011;31078;48.304;11.896;2023-07-29T08:15:58;10.93;;;7.57;;
45344;SDS011;31078;48.304;11.896;2023-07-29T08:18:25;13.40;;;7.55;;
45344;SDS011;31078;48.304;11.896;2023-07-29T08:20:52;11.48;;;7.18;;
45344;SDS011;31078;48.304;11.896;2023-07-29T08:23:19;11.38;;;6.13;;
45344;SDS011;31078;48.304;11.896;2023-07-29T08:25:50;13.40;;;6.72;;
45344;SDS011;31078;48.304;11.896;2023-07-29T08:28:18;11.32;;;7.40;;
45344;SDS011;31078;48.304;11.896;2023-07-29T08:30:44;14.85;;;8.10;;
45344;SDS011;31078;48.304;11.896;2023-07-29T08:33:12;15.20;;;10.05;;
45344;SDS011;31078;48.304;11.896;2023-07-29T08:35:39;14.30;;;9.90;;
45344;SDS011;31078;48.304;11.896;2023-07-29T08:38:05;13.52;;;8.95;;
45344;SDS011;31078;48.304;11.896;2023-07-29T08:40:32;11.30;;;7.93;;
45344;SDS011;31078;48.304;11.896;2023-07-29T08:43:01;15.60;;;8.25;;
45344;SDS011;31078;48.304;11.896;2023-07-29T08:45:30;12.68;;;7.32;;
45344;SDS011;31078;48.304;11.896;2023-07-29T08:48:00;10.68;;;7.05;;
45344;SDS011;31078;48.304;11.896;2023-07-29T08:50:33;9.38;;;6.82;;
45344;SDS011;31078;48.304;11.896;2023-07-29T08:53:02;11.20;;;7.43;;
45344;SDS011;31078;48.304;11.896;2023-07-29T08:55:30;6.80;;;5.28;;
45344;SDS011;31078;48.304;11.896;2023-07-29T08:57:57;7.82;;;5.47;;
45344;SDS011;31078;48.304;11.896;2023-07-29T09:00:24;6.60;;;4.72;;
45344;SDS011;31078;48.304;11.896;2023-07-29T09:02:51;7.28;;;5.20;;
45344;SDS011;31078;48.304;11.896;2023-07-29T09:05:18;9.80;;;5.70;;
45344;SDS011;31078;48.304;11.896;2023-07-29T09:07:48;7.15;;;5.60;;
45344;SDS011;31078;48.304;11.896;2023-07-29T09:10:18;8.88;;;6.10;;
45344;SDS011;31078;48.304;11.896;2023-07-29T09:12:48;7.40;;;4.80;;
45344;SDS011;31078;48.304;11.896;2023-07-29T09:15:25;6.63;;;5.20;;
45344;SDS011;31078;48.304;11.896;2023-07-29T09:17:53;7.35;;;4.78;;
45344;SDS011;31078;48.304;11.896;2023-07-29T09:20:23;6.25;;;4.15;;
45344;SDS011;31078;48.304;11.896;2023-07-29T09:22:51;5.00;;;3.75;;
45344;SDS011;31078;48.304;11.896;2023-07-29T09:25:22;5.78;;;3.85;;
45344;SDS011;31078;48.304;11.896;2023-07-29T09:27:50;7.15;;;3.97;;
45344;SDS011;31078;48.304;11.896;2023-07-29T09:30:16;6.35;;;3.97;;
45344;SDS011;31078;48.304;11.896;2023-07-29T09:32:43;6.05;;;3.85;;
45344;SDS011;31078;48.304;11.896;2023-07-29T09:35:10;8.52;;;4.00;;
45344;SDS011;31078;48.304;11.896;2023-07-29T09:37:37;6.05;;;3.42;;
45344;SDS011;31078;48.304;11.896;2023-07-29T09:40:06;6.15;;;2.80;;
45344;SDS011;31078;48.304;11.896;2023-07-29T09:42:39;4.43;;;2.90;;
45344;SDS011;31078;48.304;11.896;2023-07-29T09:45:06;6.10;;;2.88;;
45344;SDS011;31078;48.304;11.896;2023-07-29T09:47:33;4.07;;;2.72;;
45344;SDS011;31078;48.304;11.896;2023-07-29T09:49:59;3.85;;;2.65;;
45344;SDS011;31078;48.304;11.896;2023-07-29T09:52:26;4.43;;;2.50;;
45344;SDS011;31078;48.304;11.896;2023-07-29T09:54:52;3.40;;;2.70;;
45344;SDS011;31078;48.304;11.896;2023-07-29T09:57:20;3.47;;;2.50;;
45344;SDS011;31078;48.304;11.896;2023-07-29T09:59:53;5.63;;;2.78;;
45344;SDS011;31078;48.304;11.896;2023-07-29T10:02:20;5.53;;;3.05;;
45344;SDS011;31078;48.304;11.896;2023-07-29T10:04:47;4.25;;;2.50;;
45344;SDS011;31078;48.304;11.896;2023-07-29T10:07:14;3.25;;;2.30;;
45344;SDS011;31078;48.304;11.896;2023-07-29T10:09:41;4.25;;;2.53;;
45344;SDS011;31078;48.304;11.896;2023-07-29T10:12:10;3.50;;;2.47;;
45344;SDS011;31078;48.304;11.896;2023-07-29T10:14:39;3.60;;;2.42;;
45344;SDS011;31078;48.304;11.896;2023-07-29T10:17:05;4.00;;;2.70;;
45344;SDS011;31078;48.304;11.896;2023-07-29T10:19:32;3.10;;;2.40;;
45344;SDS011;31078;48.304;11.896;2023-07-29T10:22:00;3.55;;;2.53;;
45344;SDS011;31078;48.304;11.896;2023-07-29T10:24:29;3.22;;;2.38;;
45344;SDS011;31078;48.304;11.896;2023-07-29T10:26:57;3.83;;;2.72;;
45344;SDS011;31078;48.304;11.896;2023-07-29T10:29:28;4.95;;;2.53;;
45344;SDS011;31078;48.304;11.896;2023-07-29T10:31:58;4.00;;;2.80;;
45344;SDS011;31078;48.304;11.896;2023-07-29T10:34:28;3.87;;;2.40;;
45344;SDS011;31078;48.304;11.896;2023-07-29T10:36:56;3.33;;;2.50;;
45344;SDS011;31078;48.304;11.896;2023-07-29T10:39:24;3.88;;;2.58;;
45344;SDS011;31078;48.304;11.896;2023-07-29T10:41:57;3.88;;;2.50;;
45344;SDS011;31078;48.304;11.896;2023-07-29T10:47:18;3.80;;;2.38;;
45344;SDS011;31078;48.304;11.896;2023-07-29T10:49:47;3.70;;;2.58;;
45344;SDS011;31078;48.304;11.896;2023-07-29T10:52:27;3.17;;;2.25;;
45344;SDS011;31078;48.304;11.896;2023-07-29T10:54:55;3.55;;;2.55;;
45344;SDS011;31078;48.304;11.896;2023-07-29T10:57:30;3.42;;;2.20;;
45344;SDS011;31078;48.304;11.896;2023-07-29T10:59:57;2.95;;;2.20;;
45344;SDS011;31078;48.304;11.896;2023-07-29T11:02:29;4.10;;;2.67;;
45344;SDS011;31078;48.304;11.896;2023-07-29T11:04:57;4.07;;;2.50;;
45344;SDS011;31078;48.304;11.896;2023-07-29T11:07:25;3.72;;;2.15;;
45344;SDS011;31078;48.304;11.896;2023-07-29T11:10:03;4.47;;;2.58;;
45344;SDS011;31078;48.304;11.896;2023-07-29T11:12:37;2.92;;;1.35;;
45344;SDS011;31078;48.304;11.896;2023-07-29T11:15:11;2.17;;;1.48;;
45344;SDS011;31078;48.304;11.896;2023-07-29T11:17:41;2.97;;;1.85;;
45344;SDS011;31078;48.304;11.896;2023-07-29T11:20:09;3.70;;;1.58;;
45344;SDS011;31078;48.304;11.896;2023-07-29T11:22:36;4.97;;;1.60;;
45344;SDS011;31078;48.304;11.896;2023-07-29T11:25:04;5.63;;;1.90;;
45344;SDS011;31078;48.304;11.896;2023-07-29T11:27:32;7.07;;;2.60;;
45344;SDS011;31078;48.304;11.896;2023-07-29T11:29:59;9.65;;;3.50;;
45344;SDS011;31078;48.304;11.896;2023-07-29T11:32:27;11.73;;;4.43;;
45344;SDS011;31078;48.304;11.896;2023-07-29T11:34:56;8.80;;;3.20;;
45344;SDS011;31078;48.304;11.896;2023-07-29T11:37:22;5.47;;;2.80;;
45344;SDS011;31078;48.304;11.896;2023-07-29T11:39:49;9.45;;;3.10;;
45344;SDS011;31078;48.304;11.896;2023-07-29T11:42:16;5.82;;;3.15;;
45344;SDS011;31078;48.304;11.896;2023-07-29T11:44:43;6.45;;;3.33;;
45344;SDS011;31078;48.304;11.896;2023-07-29T11:47:09;9.82;;;3.38;;
45344;SDS011;31078;48.304;11.896;2023-07-29T11:49:38;6.43;;;3.05;;
45344;SDS011;31078;48.304;11.896;2023-07-29T11:52:07;4.65;;;3.10;;
45344;SDS011;31078;48.304;11.896;2023-07-29T11:54:35;5.05;;;2.65;;
45344;SDS011;31078;48.304;11.896;2023-07-29T11:57:02;4.68;;;2.50;;
45344;SDS011;31078;48.304;11.896;2023-07-29T11:59:30;3.78;;;2.30;;
45344;SDS011;31078;48.304;11.896;2023-07-29T12:01:56;4.00;;;2.42;;
45344;SDS011;31078;48.304;11.896;2023-07-29T12:04:23;5.82;;;2.30;;
45344;SDS011;31078;48.304;11.896;2023-07-29T12:06:50;5.18;;;2.28;;
45344;SDS011;31078;48.304;11.896;2023-07-29T12:09:18;3.38;;;2.10;;
45344;SDS011;31078;48.304;11.896;2023-07-29T12:11:45;4.40;;;2.15;;
45344;SDS011;31078;48.304;11.896;2023-07-29T12:14:12;3.97;;;1.95;;
45344;SDS011;31078;48.304;11.896;2023-07-29T12:16:41;2.58;;;1.95;;
45344;SDS011;31078;48.304;11.896;2023-07-29T12:19:08;3.17;;;2.28;;
45344;SDS011;31078;48.304;11.896;2023-07-29T12:21:38;4.40;;;2.15;;
45344;SDS011;31078;48.304;11.896;2023-07-29T12:24:05;3.85;;;2.30;;
45344;SDS011;31078;48.304;11.896;2023-07-29T12:26:33;3.58;;;2.10;;
45344;SDS011;31078;48.304;11.896;2023-07-29T12:29:10;4.10;;;2.20;;
45344;SDS011;31078;48.304;11.896;2023-07-29T12:31:38;4.40;;;2.30;;
45344;SDS011;31078;48.304;11.896;2023-07-29T12:34:04;6.05;;;2.28;;
45344;SDS011;31078;48.304;11.896;2023-07-29T12:36:40;4.45;;;2.35;;
45344;SDS011;31078;48.304;11.896;2023-07-29T12:39:15;4.45;;;2.30;;
45344;SDS011;31078;48.304;11.896;2023-07-29T12:41:43;5.05;;;2.30;;
45344;SDS011;31078;48.304;11.896;2023-07-29T12:44:10;4.80;;;2.50;;
45344;SDS011;31078;48.304;11.896;2023-07-29T12:46:37;3.38;;;2.28;;
45344;SDS011;31078;48.304;11.896;2023-07-29T12:49:03;3.65;;;2.20;;
45344;SDS011;31078;48.304;11.896;2023-07-29T12:51:30;4.55;;;2.55;;
45344;SDS011;31078;48.304;11.896;2023-07-29T12:53:56;4.82;;;2.33;;
45344;SDS011;31078;48.304;11.896;2023-07-29T12:56:23;3.85;;;2.60;;
45344;SDS011;31078;48.304;11.896;2023-07-29T12:58:50;4.20;;;2.55;;
45344;SDS011;31078;48.304;11.896;2023-07-29T13:01:17;6.70;;;2.42;;
45344;SDS011;31078;48.304;11.896;2023-07-29T13:03:44;4.93;;;2.65;;
45344;SDS011;31078;48.304;11.896;2023-07-29T13:06:10;5.07;;;2.50;;
45344;SDS011;31078;48.304;11.896;2023-07-29T13:08:37;4.65;;;3.38;;
45344;SDS011;31078;48.304;11.896;2023-07-29T13:11:04;4.00;;;2.45;;
45344;SDS011;31078;48.304;11.896;2023-07-29T13:13:31;5.15;;;2.97;;
45344;SDS011;31078;48.304;11.896;2023-07-29T13:15:59;3.90;;;2.72;;
45344;SDS011;31078;48.304;11.896;2023-07-29T13:18:26;4.38;;;2.67;;
45344;SDS011;31078;48.304;11.896;2023-07-29T13:20:53;5.70;;;3.25;;
45344;SDS011;31078;48.304;11.896;2023-07-29T13:23:19;4.95;;;2.70;;
45344;SDS011;31078;48.304;11.896;2023-07-29T13:25:46;4.47;;;3.08;;
45344;SDS011;31078;48.304;11.896;2023-07-29T13:28:13;4.00;;;2.60;;
45344;SDS011;31078;48.304;11.896;2023-07-29T13:30:40;3.83;;;2.60;;
45344;SDS011;31078;48.304;11.896;2023-07-29T13:33:08;8.00;;;2.58;;
45344;SDS011;31078;48.304;11.896;2023-07-29T13:35:35;3.78;;;2.40;;
45344;SDS011;31078;48.304;11.896;2023-07-29T13:38:02;3.67;;;2.80;;
45344;SDS011;31078;48.304;11.896;2023-07-29T13:40:29;4.45;;;2.67;;
45344;SDS011;31078;48.304;11.896;2023-07-29T13:42:55;3.40;;;2.60;;
45344;SDS011;31078;48.304;11.896;2023-07-29T13:45:24;4.97;;;2.80;;
45344;SDS011;31078;48.304;11.896;2023-07-29T13:47:51;4.72;;;2.58;;
45344;SDS011;31078;48.304;11.896;2023-07-29T13:50:19;3.80;;;2.67;;
45344;SDS011;31078;48.304;11.896;2023-07-29T13:52:48;5.10;;;2.80;;
45344;SDS011;31078;48.304;11.896;2023-07-29T13:55:15;3.88;;;2.30;;
45344;SDS011;31078;48.304;11.896;2023-07-29T13:57:41;6.40;;;2.58;;
45344;SDS011;31078;48.304;11.896;2023-07-29T14:00:08;3.35;;;2.38;;
45344;SDS011;31078;48.304;11.896;2023-07-29T14:02:34;4.40;;;2.63;;
45344;SDS011;31078;48.304;11.896;2023-07-29T14:05:01;4.22;;;2.90;;
45344;SDS011;31078;48.304;11.896;2023-07-29T14:07:29;4.00;;;2.72;;
45344;SDS011;31078;48.304;11.896;2023-07-29T14:09:55;4.53;;;2.78;;
45344;SDS011;31078;48.304;11.896;2023-07-29T14:12:22;3.17;;;2.60;;
45344;SDS011;31078;48.304;11.896;2023-07-29T14:14:48;4.20;;;2.50;;
45344;SDS011;31078;48.304;11.896;2023-07-29T14:17:15;3.50;;;2.50;;
45344;SDS011;31078;48.304;11.896;2023-07-29T14:19:41;5.85;;;2.88;;
45344;SDS011;31078;48.304;11.896;2023-07-29T14:22:08;3.15;;;2.47;;
45344;SDS011;31078;48.304;11.896;2023-07-29T14:24:35;4.95;;;2.50;;
45344;SDS011;31078;48.304;11.896;2023-07-29T14:27:02;4.60;;;3.13;;
45344;SDS011;31078;48.304;11.896;2023-07-29T14:29:29;4.50;;;2.80;;
45344;SDS011;31078;48.304;11.896;2023-07-29T14:31:56;4.57;;;2.80;;
45344;SDS011;31078;48.304;11.896;2023-07-29T14:34:22;3.97;;;2.50;;
45344;SDS011;31078;48.304;11.896;2023-07-29T14:36:49;3.80;;;3.00;;
45344;SDS011;31078;48.304;11.896;2023-07-29T14:39:15;4.35;;;2.78;;